Time;durP1;ratioP1;P1;durP2;ratioP2;P2;SDS_P1;SDS_P2;PMS_P1;PMS_P2;Temp;Humidity;BMP_temperature;BMP_pressure;BME280_temperature;BME280_humidity;BME280_pressure;Samples;Min_cycle;Max_cycle;Signal;HPM_P1;HPM_P2
2022/06/18 00:00:25;;;;;;;2.42;1.90;;;;;;;12.59;95.89;98440.36;1815838;78;20918;-62
2022/06/18 00:02:52;;;;;;;2.55;2.00;;;;;;;12.60;96.16;98436.59;1815860;79;20907;-70
2022/06/18 00:05:20;;;;;;;7.15;1.87;;;;;;;12.62;96.31;98437.09;1815815;79;21055;-67
2022/06/18 00:07:52;;;;;;;7.67;1.95;;;;;;;12.65;96.42;98435.14;1815669;79;21517;-63
2022/06/18 00:10:24;;;;;;;5.12;1.60;;;;;;;12.65;96.52;98429.23;1815771;78;20951;-62
2022/06/18 00:15:36;;;;;;;1.77;1.40;;;;;;;12.67;95.77;98435.67;1783374;78;20937;-61
2022/06/18 00:18:10;;;;;;;4.72;1.70;;;;;;;12.58;94.92;98440.89;1815851;79;21182;-69
2022/06/18 00:20:36;;;;;;;2.10;1.60;;;;;;;12.53;94.31;98437.50;1815784;79;21015;-69
2022/06/18 00:23:03;;;;;;;1.72;1.35;;;;;;;12.45;93.80;98442.17;1777062;79;20837;-69
2022/06/18 00:25:33;;;;;;;4.03;1.65;;;;;;;12.39;93.44;98432.61;1815938;78;21031;-69
2022/06/18 00:28:05;;;;;;;3.75;1.60;;;;;;;12.28;92.91;98434.09;1815947;78;20830;-65
2022/06/18 00:30:31;;;;;;;3.42;1.65;;;;;;;12.14;92.73;98439.92;1812543;78;21192;-65
2022/06/18 00:32:58;;;;;;;4.55;1.40;;;;;;;12.08;92.88;98434.34;1815935;79;20947;-65
2022/06/18 00:35:24;;;;;;;2.75;1.72;;;;;;;12.04;92.97;98439.25;1816321;78;21368;-64
2022/06/18 00:37:55;;;;;;;2.00;1.77;;;;;;;12.03;93.04;98434.45;1815861;79;20915;-70
2022/06/18 00:40:38;;;;;;;3.50;2.20;;;;;;;12.03;93.20;98441.69;1815418;78;20904;-64
2022/06/18 00:43:11;;;;;;;4.95;2.10;;;;;;;12.03;93.53;98442.50;1815906;79;21197;-64
2022/06/18 00:45:39;;;;;;;3.80;2.10;;;;;;;12.02;94.07;98434.17;1815940;79;21043;-69
2022/06/18 00:48:21;;;;;;;2.65;1.85;;;;;;;12.03;94.58;98440.35;1825735;78;21513;-67
2022/06/18 00:50:56;;;;;;;2.00;1.70;;;;;;;12.04;95.05;98441.39;1827414;78;20958;-63
2022/06/18 00:53:35;;;;;;;7.25;2.67;;;;;;;12.08;95.27;98443.75;1826393;78;21351;-67
2022/06/18 00:56:13;;;;;;;2.90;1.87;;;;;;;12.10;95.18;98446.97;1827297;78;21172;-65
2022/06/18 00:59:01;;;;;;;2.40;1.92;;;;;;;12.09;94.78;98445.36;1827340;78;20903;-60
2022/06/18 01:01:37;;;;;;;4.42;2.02;;;;;;;12.04;94.36;98448.11;1813827;78;20963;-68
2022/06/18 01:04:27;;;;;;;3.80;2.10;;;;;;;12.03;94.18;98443.84;1827490;78;21007;-68
2022/06/18 01:07:00;;;;;;;3.40;1.80;;;;;;;12.03;94.28;98449.20;1827833;78;20880;-68
2022/06/18 01:09:28;;;;;;;7.03;2.20;;;;;;;12.05;94.63;98446.23;1827287;78;21200;-65
2022/06/18 01:11:54;;;;;;;6.65;2.30;;;;;;;12.06;94.53;98445.16;1827450;78;21395;-63
2022/06/18 01:14:21;;;;;;;2.00;1.80;;;;;;;12.09;94.70;98444.55;1827396;78;20899;-67
2022/06/18 01:16:50;;;;;;;4.05;2.10;;;;;;;12.10;94.95;98447.51;1827599;78;21478;-65
2022/06/18 01:19:36;;;;;;;3.83;2.17;;;;;;;12.10;95.21;98446.97;1827499;78;20970;-65
2022/06/18 01:22:38;;;;;;;2.60;2.02;;;;;;;12.11;95.67;98440.49;1827747;78;21390;-64
2022/06/18 01:25:07;;;;;;;8.78;2.67;;;;;;;12.13;95.99;98454.42;1827073;78;21454;-68
2022/06/18 01:27:36;;;;;;;3.60;2.30;;;;;;;12.12;96.07;98444.79;1827489;78;20947;-61
2022/06/18 01:30:10;;;;;;;3.85;2.20;;;;;;;12.12;96.30;98443.98;1827366;78;20888;-63
2022/06/18 01:32:45;;;;;;;3.67;2.40;;;;;;;12.14;96.64;98446.64;1827487;78;20911;-62
2022/06/18 01:35:12;;;;;;;4.80;2.47;;;;;;;12.17;96.66;98447.41;1827659;78;21458;-66
2022/06/18 01:37:42;;;;;;;2.90;2.25;;;;;;;12.18;96.67;98443.63;1828197;78;20915;-65
2022/06/18 01:40:12;;;;;;;3.47;2.30;;;;;;;12.17;96.73;98444.73;1828314;78;20904;-63
2022/06/18 01:42:43;;;;;;;2.72;1.85;;;;;;;12.15;96.84;98446.87;1827367;78;20865;-66
2022/06/18 01:45:22;;;;;;;5.78;1.95;;;;;;;12.16;96.45;98445.00;1827470;78;20903;-69
2022/06/18 01:48:06;;;;;;;3.62;1.80;;;;;;;12.13;95.98;98441.00;1821274;78;21100;-68
2022/06/18 01:50:49;;;;;;;3.72;2.92;;;;;;;12.10;95.79;98442.94;1815775;78;20868;-64
2022/06/18 01:53:33;;;;;;;4.25;1.85;;;;;;;12.06;95.58;98442.47;1815918;79;20857;-69
2022/06/18 01:56:12;;;;;;;5.53;1.87;;;;;;;12.00;94.82;98441.72;1815964;78;20905;-64
2022/06/18 01:58:45;;;;;;;3.22;1.72;;;;;;;11.93;94.47;98443.96;1815064;78;20916;-61
2022/06/18 02:01:21;;;;;;;2.15;1.60;;;;;;;11.88;94.04;98449.39;1810807;79;21146;-62
2022/06/18 02:03:47;;;;;;;3.02;1.92;;;;;;;11.83;93.72;98449.45;1815728;78;20992;-63
2022/06/18 02:06:15;;;;;;;3.98;2.02;;;;;;;11.81;93.66;98458.33;1815859;78;20877;-69
2022/06/18 02:08:42;;;;;;;3.52;2.10;;;;;;;11.76;93.51;98448.99;1815799;79;20873;-65
2022/06/18 02:11:11;;;;;;;4.08;1.82;;;;;;;11.68;93.29;98450.42;1815935;79;20912;-67
2022/06/18 02:14:00;;;;;;;2.65;1.72;;;;;;;11.62;93.14;98454.22;1815861;78;20869;-69
2022/06/18 02:16:33;;;;;;;4.62;1.80;;;;;;;11.59;92.91;98456.66;1815858;79;21428;-65
2022/06/18 02:19:01;;;;;;;5.10;2.05;;;;;;;11.51;92.71;98452.75;1815815;78;20912;-65
2022/06/18 02:21:27;;;;;;;2.90;2.30;;;;;;;11.44;92.80;98454.97;1815774;79;20920;-63
2022/06/18 02:23:54;;;;;;;4.15;2.20;;;;;;;11.41;93.09;98460.09;1815928;79;20911;-62
2022/06/18 02:26:22;;;;;;;2.90;1.98;;;;;;;11.41;93.07;98461.42;1815756;79;21235;-60
2022/06/18 02:28:53;;;;;;;2.22;1.70;;;;;;;11.36;93.00;98460.94;1815923;79;21423;-65
2022/06/18 02:31:27;;;;;;;2.77;1.95;;;;;;;11.33;93.15;98466.86;1815887;78;20904;-69
2022/06/18 02:33:58;;;;;;;6.55;2.47;;;;;;;11.35;93.28;98471.95;1816067;79;21400;-62
2022/06/18 02:36:31;;;;;;;5.25;2.33;;;;;;;11.32;93.22;98468.50;1815831;79;20967;-61
2022/06/18 02:39:32;;;;;;;4.45;2.12;;;;;;;11.29;93.45;98471.20;1815782;79;21718;-61
2022/06/18 02:42:08;;;;;;;2.85;1.90;;;;;;;11.28;93.56;98472.83;1815749;79;20943;-60
2022/06/18 02:44:40;;;;;;;4.47;2.00;;;;;;;11.26;93.34;98473.66;1816182;78;21411;-60
2022/06/18 02:47:08;;;;;;;5.10;1.95;;;;;;;11.26;93.68;98475.78;1815834;79;21462;-62
2022/06/18 02:49:40;;;;;;;2.45;2.25;;;;;;;11.33;94.79;98469.54;1815866;78;20904;-62
2022/06/18 02:52:07;;;;;;;3.67;2.52;;;;;;;11.42;95.19;98477.22;1805225;79;21242;-69
2022/06/18 02:54:35;;;;;;;6.70;2.50;;;;;;;11.54;95.90;98481.66;1815742;78;20892;-68
2022/06/18 02:57:08;;;;;;;4.65;2.37;;;;;;;11.64;96.16;98482.10;1815936;78;21379;-67
2022/06/18 02:59:35;;;;;;;3.77;2.67;;;;;;;11.73;96.68;98481.76;1815881;79;20906;-65
2022/06/18 03:02:02;;;;;;;4.67;2.40;;;;;;;11.86;96.85;98478.41;1815898;79;20896;-69
2022/06/18 03:04:29;;;;;;;3.15;2.60;;;;;;;11.96;97.06;98485.00;1815729;78;21047;-67
2022/06/18 03:06:57;;;;;;;4.80;3.12;;;;;;;12.07;97.01;98485.13;1815787;78;20992;-67
2022/06/18 03:09:26;;;;;;;3.52;2.25;;;;;;;12.16;96.88;98487.96;1815838;78;20912;-69
2022/06/18 03:12:07;;;;;;;3.70;2.20;;;;;;;12.23;96.68;98482.50;1815730;78;20927;-69
2022/06/18 03:14:36;;;;;;;3.62;2.42;;;;;;;12.29;96.55;98481.33;1815900;78;20967;-67
2022/06/18 03:17:04;;;;;;;4.65;2.55;;;;;;;12.33;96.38;98489.09;1815749;78;21101;-63
2022/06/18 03:19:43;;;;;;;3.33;2.30;;;;;;;12.38;96.12;98484.72;1815785;79;20904;-65
2022/06/18 03:22:13;;;;;;;6.50;2.65;;;;;;;12.42;95.91;98487.88;1815792;78;21435;-61
2022/06/18 03:24:41;;;;;;;3.00;2.10;;;;;;;12.44;95.73;98482.20;1816031;78;21435;-68
2022/06/18 03:27:09;;;;;;;4.55;2.55;;;;;;;12.48;95.40;98488.09;1815880;78;20889;-65
2022/06/18 03:29:36;;;;;;;3.25;2.50;;;;;;;12.52;95.32;98482.91;1815745;79;21088;-65
2022/06/18 03:32:05;;;;;;;4.72;2.35;;;;;;;12.57;95.19;98478.81;1815901;79;21368;-63
2022/06/18 03:34:32;;;;;;;3.85;2.40;;;;;;;12.63;95.13;98481.67;1815754;79;21395;-65
2022/06/18 03:36:59;;;;;;;3.83;2.55;;;;;;;12.68;94.88;98478.91;1815835;79;20963;-65
2022/06/18 03:39:26;;;;;;;4.95;2.12;;;;;;;12.74;94.54;98480.45;1815782;78;20873;-70
2022/06/18 03:41:52;;;;;;;3.27;2.22;;;;;;;12.77;94.40;98483.34;1815861;79;21247;-67
2022/06/18 03:44:18;;;;;;;2.70;2.30;;;;;;;12.84;94.36;98485.11;1815766;79;20865;-62
2022/06/18 03:46:45;;;;;;;3.50;2.33;;;;;;;12.90;94.31;98483.15;1815926;79;21364;-68
2022/06/18 03:49:31;;;;;;;9.08;2.62;;;;;;;12.95;94.31;98483.08;1816086;78;20881;-70
2022/06/18 03:52:00;;;;;;;3.92;2.65;;;;;;;13.02;94.29;98486.19;1815912;79;20951;-63
2022/06/18 03:54:27;;;;;;;3.72;2.33;;;;;;;13.07;94.20;98491.52;1815843;78;21087;-68
2022/06/18 03:56:54;;;;;;;3.95;2.40;;;;;;;13.10;94.10;98489.56;1815682;79;20869;-65
2022/06/18 03:59:21;;;;;;;3.30;2.10;;;;;;;13.11;93.90;98491.17;1816118;78;21388;-65
2022/06/18 04:01:49;;;;;;;4.78;2.50;;;;;;;13.14;93.50;98500.00;1815990;79;21443;-61
2022/06/18 04:04:16;;;;;;;4.20;2.58;;;;;;;13.19;93.31;98490.48;1815906;79;20939;-62
2022/06/18 04:06:45;;;;;;;3.08;2.70;;;;;;;13.26;93.28;98493.59;1816219;78;21418;-70
2022/06/18 04:09:32;;;;;;;7.40;2.60;;;;;;;13.32;93.17;98489.73;1815861;78;20861;-63
2022/06/18 04:11:59;;;;;;;6.83;2.00;;;;;;;13.40;93.11;98491.73;1815977;79;20846;-60
2022/06/18 04:14:26;;;;;;;6.42;2.47;;;;;;;13.43;92.91;98494.38;1816220;78;21408;-61
2022/06/18 04:16:57;;;;;;;5.42;2.52;;;;;;;13.46;92.85;98495.94;1811163;78;21074;-68
2022/06/18 04:19:25;;;;;;;4.90;2.58;;;;;;;13.53;92.67;98495.55;1816023;78;21361;-70
2022/06/18 04:21:54;;;;;;;3.00;2.60;;;;;;;13.57;92.63;98500.03;1815937;78;20865;-63
2022/06/18 04:24:22;;;;;;;4.08;2.60;;;;;;;13.62;92.55;98494.56;1816378;78;20868;-70
2022/06/18 04:26:54;;;;;;;5.03;2.60;;;;;;;13.67;92.37;98493.13;1815995;78;20888;-62
2022/06/18 04:29:21;;;;;;;3.85;2.60;;;;;;;13.76;92.24;98499.15;1815930;78;20963;-66
2022/06/18 04:31:47;;;;;;;4.67;2.40;;;;;;;13.82;92.06;98496.62;1816004;78;21188;-66
2022/06/18 04:34:14;;;;;;;4.95;2.65;;;;;;;13.89;91.86;98499.72;1815989;78;21431;-64
2022/06/18 04:36:49;;;;;;;5.28;2.65;;;;;;;13.94;91.61;98495.59;1817388;78;20927;-71
2022/06/18 04:39:20;;;;;;;6.05;2.72;;;;;;;14.01;91.46;98506.76;1816497;78;20916;-62
2022/06/18 04:41:48;;;;;;;3.92;2.35;;;;;;;14.06;91.29;98503.97;1815028;78;21351;-72
2022/06/18 04:44:17;;;;;;;3.30;2.25;;;;;;;14.13;91.18;98498.97;1816125;78;21210;-70
2022/06/18 04:46:45;;;;;;;3.75;2.30;;;;;;;14.19;90.97;98500.45;1816425;78;20916;-62
2022/06/18 04:49:13;;;;;;;4.72;2.33;;;;;;;14.26;90.86;98500.84;1815926;78;21380;-71
2022/06/18 04:51:39;;;;;;;4.60;2.70;;;;;;;14.32;90.69;98502.34;1815972;78;20916;-67
2022/06/18 04:54:07;;;;;;;7.53;2.60;;;;;;;14.37;90.57;98502.25;1816005;79;20940;-64
2022/06/18 04:56:35;;;;;;;3.83;2.30;;;;;;;14.42;90.30;98502.14;1816179;78;21107;-71
2022/06/18 04:59:02;;;;;;;5.60;2.87;;;;;;;14.45;90.11;98508.28;1815809;78;20896;-67
2022/06/18 05:01:30;;;;;;;6.05;2.10;;;;;;;14.51;89.89;98508.98;1815855;79;20869;-67
2022/06/18 05:04:08;;;;;;;3.08;1.90;;;;;;;14.56;88.94;98511.54;1770771;80;20986;-70
2022/06/18 05:06:47;;;;;;;4.67;1.95;;;;;;;14.65;87.91;98515.14;1792172;79;20951;-70
2022/06/18 05:09:15;;;;;;;2.92;2.02;;;;;;;14.74;86.93;98522.20;1817068;78;21712;-72
2022/06/18 05:11:47;;;;;;;4.08;2.08;;;;;;;14.82;86.03;98516.61;1812679;78;20983;-69
2022/06/18 05:14:24;;;;;;;4.33;1.98;;;;;;;14.87;85.33;98520.55;1807801;79;20991;-65
2022/06/18 05:16:54;;;;;;;3.87;1.95;;;;;;;14.94;84.71;98523.62;1815917;79;21466;-65
2022/06/18 05:19:27;;;;;;;3.52;1.80;;;;;;;15.00;84.25;98523.77;1815861;79;20912;-70
2022/06/18 05:21:56;;;;;;;8.85;2.50;;;;;;;15.06;84.41;98523.33;1815880;78;20995;-63
2022/06/18 05:24:25;;;;;;;6.55;2.85;;;;;;;15.14;84.88;98529.09;1815780;79;20892;-69
2022/06/18 05:26:54;;;;;;;3.77;2.00;;;;;;;15.17;85.11;98529.27;1815907;79;20872;-67
2022/06/18 05:29:20;;;;;;;4.67;2.35;;;;;;;15.23;85.45;98534.80;1804855;79;21467;-71
2022/06/18 05:31:47;;;;;;;2.55;2.10;;;;;;;15.32;85.58;98528.10;1815860;79;20959;-70
2022/06/18 05:34:14;;;;;;;5.92;2.22;;;;;;;15.40;85.21;98532.77;1815844;78;21218;-68
2022/06/18 05:36:41;;;;;;;3.58;2.37;;;;;;;15.45;85.13;98534.03;1815887;79;20963;-66
2022/06/18 05:39:10;;;;;;;5.42;2.08;;;;;;;15.52;84.83;98541.14;1815823;79;20908;-69
2022/06/18 05:41:38;;;;;;;2.70;1.85;;;;;;;15.61;84.58;98534.69;1831777;78;20959;-68
2022/06/18 05:44:06;;;;;;;4.78;1.90;;;;;;;15.71;83.16;98536.30;1815850;79;20908;-61
2022/06/18 05:46:33;;;;;;;3.00;2.10;;;;;;;15.80;81.83;98539.86;1816229;78;21345;-70
2022/06/18 05:49:00;;;;;;;3.00;2.10;;;;;;;15.83;81.24;98535.17;1817874;78;21050;-63
2022/06/18 05:51:26;;;;;;;2.90;1.80;;;;;;;15.85;80.70;98538.34;1827384;78;20881;-67
2022/06/18 05:53:53;;;;;;;4.83;2.12;;;;;;;15.91;80.77;98537.67;1827445;78;20865;-65
2022/06/18 05:56:24;;;;;;;4.10;2.12;;;;;;;15.99;80.39;98543.09;1812851;78;20864;-66
2022/06/18 05:58:56;;;;;;;3.02;2.10;;;;;;;16.08;79.27;98545.30;1814374;78;21232;-64
2022/06/18 06:01:25;;;;;;;4.10;2.15;;;;;;;16.11;78.68;98540.61;1827569;78;21426;-66
2022/06/18 06:03:52;;;;;;;3.58;2.15;;;;;;;16.16;78.74;98543.17;1827471;78;20868;-61
2022/06/18 06:06:19;;;;;;;4.35;2.00;;;;;;;16.20;78.52;98549.53;1827296;78;20966;-69
2022/06/18 06:08:47;;;;;;;4.65;2.12;;;;;;;16.25;78.86;98547.27;1827573;78;21541;-63
2022/06/18 06:11:28;;;;;;;4.60;2.20;;;;;;;16.33;78.97;98551.89;1827354;78;22085;-70
2022/06/18 06:14:00;;;;;;;4.53;2.33;;;;;;;16.39;78.57;98557.41;1827315;78;20864;-71
2022/06/18 06:16:28;;;;;;;3.72;2.42;;;;;;;16.47;78.05;98562.02;1827339;78;20982;-62
2022/06/18 06:18:56;;;;;;;7.72;2.10;;;;;;;16.55;77.79;98560.48;1827963;78;20836;-62
2022/06/18 06:21:23;;;;;;;4.80;2.92;;;;;;;16.62;78.72;98560.83;1827949;78;20914;-69
2022/06/18 06:23:50;;;;;;;4.37;2.60;;;;;;;16.69;77.62;98570.63;1827383;78;21155;-68
2022/06/18 06:26:24;;;;;;;3.35;2.35;;;;;;;16.71;77.55;98562.44;1827336;78;21005;-69
2022/06/18 06:28:51;;;;;;;3.07;2.40;;;;;;;16.76;77.87;98565.54;1827705;78;20915;-62
2022/06/18 06:31:18;;;;;;;3.33;2.40;;;;;;;16.80;78.09;98560.53;1827401;78;20998;-60
2022/06/18 06:33:49;;;;;;;5.05;2.65;;;;;;;16.87;77.37;98559.50;1827366;78;20966;-67
2022/06/18 06:36:17;;;;;;;6.85;2.47;;;;;;;16.96;77.67;98556.80;1827433;78;21211;-60
2022/06/18 06:38:44;;;;;;;6.75;2.80;;;;;;;17.04;77.89;98560.07;1827257;78;20868;-68
2022/06/18 06:41:20;;;;;;;4.92;2.87;;;;;;;17.10;77.27;98562.30;1827399;78;21443;-71
2022/06/18 06:43:47;;;;;;;5.70;2.50;;;;;;;17.14;77.10;98556.25;1827332;78;21002;-70
2022/06/18 06:46:15;;;;;;;5.17;2.55;;;;;;;17.21;76.31;98557.37;1827305;78;20836;-60
2022/06/18 06:48:43;;;;;;;4.40;2.67;;;;;;;17.25;76.24;98559.67;1827315;78;21758;-66
2022/06/18 06:51:20;;;;;;;3.35;2.08;;;;;;;17.30;75.62;98559.51;1816162;78;20980;-60
2022/06/18 06:53:47;;;;;;;7.78;2.58;;;;;;;17.35;75.85;98555.29;1815794;78;20979;-63
2022/06/18 06:59:00;;;;;;;10.98;2.77;;;;;;;17.52;75.80;98559.91;1815900;79;20920;-66
2022/06/18 07:01:27;;;;;;;7.33;2.40;;;;;;;17.59;75.73;98552.86;1815759;79;21071;-71
2022/06/18 07:03:53;;;;;;;4.17;2.40;;;;;;;17.66;75.72;98547.75;1815693;79;20869;-69
2022/06/18 07:06:21;;;;;;;3.40;2.40;;;;;;;17.75;75.54;98541.77;1815817;78;21424;-65
2022/06/18 07:08:48;;;;;;;4.37;2.60;;;;;;;17.86;74.51;98544.11;1815916;79;21455;-61
2022/06/18 07:11:16;;;;;;;3.65;2.87;;;;;;;17.92;74.34;98540.13;1815873;78;20856;-66
2022/06/18 07:13:43;;;;;;;4.25;2.72;;;;;;;17.98;74.79;98544.23;1815875;79;21226;-63
2022/06/18 07:16:12;;;;;;;6.62;2.30;;;;;;;18.02;73.70;98541.10;1815687;79;20956;-70
2022/06/18 07:18:39;;;;;;;3.27;2.20;;;;;;;18.08;73.94;98546.59;1815763;79;20896;-68
2022/06/18 07:21:13;;;;;;;3.25;1.98;;;;;;;18.13;72.50;98540.44;1815843;78;21019;-70
2022/06/18 07:23:40;;;;;;;3.37;2.30;;;;;;;18.13;72.37;98547.77;1805196;79;20991;-66
2022/06/18 07:26:10;;;;;;;4.22;2.10;;;;;;;18.13;72.85;98547.77;1815815;78;20885;-69
2022/06/18 07:28:36;;;;;;;4.75;2.30;;;;;;;18.12;72.82;98539.39;1804701;79;21414;-61
2022/06/18 07:31:04;;;;;;;4.17;2.30;;;;;;;18.16;73.45;98549.84;1815748;79;20856;-67
2022/06/18 07:33:33;;;;;;;7.05;2.50;;;;;;;18.22;71.92;98543.91;1815826;78;21407;-63
2022/06/18 07:36:00;;;;;;;7.12;2.75;;;;;;;18.23;72.41;98544.70;1815869;79;20975;-61
2022/06/18 07:38:27;;;;;;;3.77;2.22;;;;;;;18.27;72.21;98543.72;1815741;79;21214;-65
2022/06/18 07:40:54;;;;;;;4.62;2.05;;;;;;;18.32;71.99;98540.03;1815895;78;21388;-68
2022/06/18 07:43:42;;;;;;;5.62;2.67;;;;;;;18.42;72.25;98543.14;1815330;79;34907;-64
2022/06/18 07:46:14;;;;;;;3.10;2.20;;;;;;;18.56;71.50;98548.35;1815209;78;21046;-71
2022/06/18 07:48:43;;;;;;;4.05;2.45;;;;;;;18.67;71.18;98548.22;1815320;78;21026;-69
2022/06/18 07:51:08;;;;;;;9.08;2.45;;;;;;;18.78;70.78;98546.70;1815676;78;21085;-71
2022/06/18 07:53:35;;;;;;;3.37;2.20;;;;;;;18.85;69.49;98549.69;1815688;78;20821;-63
2022/06/18 07:56:04;;;;;;;5.15;2.20;;;;;;;18.84;69.58;98539.95;1815830;78;20868;-64
2022/06/18 07:58:31;;;;;;;3.17;2.30;;;;;;;18.86;68.64;98547.22;1816108;79;20912;-70
2022/06/18 08:00:58;;;;;;;6.20;2.42;;;;;;;18.90;68.67;98554.13;1815864;79;21514;-66
2022/06/18 08:03:24;;;;;;;2.92;1.72;;;;;;;18.93;67.56;98546.69;1815815;78;21219;-71
2022/06/18 08:05:53;;;;;;;3.72;2.00;;;;;;;18.91;67.93;98547.00;1815745;78;20892;-67
2022/06/18 08:08:19;;;;;;;2.87;1.95;;;;;;;18.93;68.21;98547.48;1815942;78;21435;-63
2022/06/18 08:10:49;;;;;;;6.10;1.92;;;;;;;19.02;68.52;98544.13;1815842;78;20964;-70
2022/06/18 08:13:15;;;;;;;5.20;1.80;;;;;;;19.21;68.89;98536.87;1816156;79;20896;-62
2022/06/18 08:15:42;;;;;;;3.72;1.92;;;;;;;19.45;69.30;98536.20;1815806;79;21719;-62
2022/06/18 08:18:08;;;;;;;2.55;1.70;;;;;;;19.77;69.38;98540.80;1815872;79;21443;-64
2022/06/18 08:20:35;;;;;;;2.60;1.85;;;;;;;20.05;65.30;98539.03;1815715;79;20908;-67
2022/06/18 08:23:02;;;;;;;5.00;1.75;;;;;;;20.17;64.42;98540.41;1815713;79;20861;-70
2022/06/18 08:25:29;;;;;;;3.83;1.70;;;;;;;20.18;64.36;98535.77;1815706;79;20975;-66
2022/06/18 08:27:57;;;;;;;4.72;1.80;;;;;;;20.09;63.27;98541.30;1815735;79;21239;-63
2022/06/18 08:30:25;;;;;;;4.35;1.80;;;;;;;19.90;62.81;98537.55;1815649;79;20900;-63
2022/06/18 08:32:52;;;;;;;3.15;1.75;;;;;;;19.85;63.39;98531.77;1815707;79;20861;-66
2022/06/18 08:35:18;;;;;;;3.52;1.80;;;;;;;19.99;63.69;98536.32;1815710;79;20920;-63
2022/06/18 08:37:45;;;;;;;2.92;1.60;;;;;;;20.03;63.33;98533.14;1815839;79;20856;-64
2022/06/18 08:40:35;;;;;;;3.42;1.65;;;;;;;19.97;62.34;98529.08;1815811;79;21231;-64
2022/06/18 08:43:17;;;;;;;4.45;1.55;;;;;;;19.86;63.19;98532.55;1815775;79;20853;-65
2022/06/18 08:45:51;;;;;;;2.92;1.70;;;;;;;19.69;63.39;98543.03;1815899;79;20860;-64
2022/06/18 08:48:56;;;;;;;2.85;1.62;;;;;;;19.63;63.57;98543.03;1816213;78;20972;-62
2022/06/18 08:52:08;;;;;;;3.22;1.17;;;;;;;19.75;64.89;98531.64;1824898;78;21394;-70
2022/06/18 08:54:53;;;;;;;1.87;0.90;;;;;;;20.04;59.20;98529.30;1827364;78;21115;-72
2022/06/18 08:57:36;;;;;;;1.37;1.10;;;;;;;20.32;57.03;98528.09;1827649;78;21482;-69
2022/06/18 09:00:19;;;;;;;2.50;1.50;;;;;;;20.57;57.49;98526.12;1827530;78;20903;-63
2022/06/18 09:03:03;;;;;;;3.45;1.25;;;;;;;20.77;56.40;98532.00;1827416;78;20923;-70
2022/06/18 09:05:49;;;;;;;3.85;1.52;;;;;;;20.73;57.19;98530.52;1827481;78;20928;-71
2022/06/18 09:08:50;;;;;;;2.12;1.30;;;;;;;20.70;57.15;98534.52;1826560;78;21118;-62
2022/06/18 09:11:39;;;;;;;2.08;1.52;;;;;;;20.59;58.28;98530.66;1827449;78;20868;-67
2022/06/18 09:14:18;;;;;;;1.80;1.25;;;;;;;20.57;58.41;98531.57;1827530;78;20833;-66
2022/06/18 09:16:54;;;;;;;3.08;1.12;;;;;;;20.68;57.84;98537.56;1827403;78;20984;-65
2022/06/18 09:19:21;;;;;;;2.02;1.30;;;;;;;20.70;56.38;98538.03;1827275;78;20958;-61
2022/06/18 09:21:56;;;;;;;2.12;1.07;;;;;;;20.57;57.72;98535.65;1781624;78;21064;-69
2022/06/18 09:24:41;;;;;;;1.52;1.00;;;;;;;20.58;57.28;98532.61;1827373;78;20871;-70
2022/06/18 09:27:15;;;;;;;3.47;1.25;;;;;;;20.80;59.17;98525.85;1827469;78;20916;-62
2022/06/18 09:29:49;;;;;;;1.32;1.10;;;;;;;20.97;56.17;98536.48;1827108;78;20947;-67
2022/06/18 09:32:22;;;;;;;2.08;1.05;;;;;;;20.89;56.05;98533.34;1826894;78;21367;-66
2022/06/18 09:35:03;;;;;;;2.17;1.30;;;;;;;20.86;57.89;98534.83;1827474;78;21184;-62
2022/06/18 09:37:49;;;;;;;3.27;1.00;;;;;;;21.00;55.69;98531.72;1827412;78;20880;-63
2022/06/18 09:40:25;;;;;;;3.42;1.00;;;;;;;21.13;55.82;98529.99;1827664;78;21489;-61
2022/06/18 09:43:09;;;;;;;2.87;1.20;;;;;;;21.30;56.16;98526.19;1827518;78;20841;-64
2022/06/18 09:45:45;;;;;;;4.85;1.12;;;;;;;21.36;55.71;98519.33;1827410;78;20907;-70
2022/06/18 09:48:12;;;;;;;1.60;1.00;;;;;;;21.33;54.96;98524.70;1827386;78;21795;-72
2022/06/18 09:51:04;;;;;;;1.42;0.93;;;;;;;21.35;54.66;98515.04;1827337;78;20884;-68
2022/06/18 09:53:37;;;;;;;3.80;1.20;;;;;;;21.53;54.56;98512.21;1827534;78;21403;-65
2022/06/18 10:01:42;;;;;;;2.20;1.20;;;;;;;21.28;51.07;98514.84;1827580;78;21873;-66
2022/06/18 10:07:03;;;;;;;2.90;1.10;;;;;;;21.67;52.50;98513.95;1827331;78;20865;-66
2022/06/18 10:09:41;;;;;;;1.67;1.00;;;;;;;21.89;50.66;98506.34;1827734;78;20947;-69
2022/06/18 10:12:35;;;;;;;1.42;1.00;;;;;;;21.89;51.79;98511.80;1827402;78;21248;-69
2022/06/18 10:15:06;;;;;;;2.47;1.02;;;;;;;21.73;51.11;98508.48;1827512;78;21081;-62
2022/06/18 10:18:20;;;;;;;1.52;1.02;;;;;;;21.58;50.52;98510.59;1827278;78;20880;-63
2022/06/18 10:21:10;;;;;;;3.05;0.82;;;;;;;21.64;51.11;98505.13;1827440;78;20872;-68
2022/06/18 10:23:56;;;;;;;2.22;0.88;;;;;;;21.95;50.94;98502.23;1827167;78;20912;-63
2022/06/18 10:27:03;;;;;;;1.80;1.00;;;;;;;22.13;51.67;98512.98;1822900;78;20876;-67
2022/06/18 10:29:54;;;;;;;2.08;1.10;;;;;;;22.31;50.88;98510.90;1781432;79;21747;-63
2022/06/18 10:32:37;;;;;;;1.52;0.90;;;;;;;22.48;50.37;98511.89;1824520;78;20908;-67
2022/06/18 10:35:38;;;;;;;2.62;1.07;;;;;;;22.63;50.17;98499.39;1827325;78;20896;-63
2022/06/18 10:38:16;;;;;;;1.60;0.88;;;;;;;22.75;50.32;98499.23;1827279;78;21356;-65
2022/06/18 10:41:03;;;;;;;3.67;1.22;;;;;;;22.79;46.32;98497.96;1827391;78;20896;-70
2022/06/18 10:43:55;;;;;;;1.95;1.17;;;;;;;22.80;48.84;98498.95;1827324;78;21995;-65
2022/06/18 10:46:22;;;;;;;2.22;1.05;;;;;;;22.89;46.83;98488.61;1826986;78;20974;-65
2022/06/18 10:49:01;;;;;;;3.37;0.85;;;;;;;22.89;48.66;98498.17;1827500;78;20912;-69
2022/06/18 10:51:44;;;;;;;2.37;0.90;;;;;;;22.84;49.24;98497.69;1820939;78;20956;-61
2022/06/18 10:54:11;;;;;;;2.72;1.20;;;;;;;22.65;46.75;98492.99;1815792;79;20975;-66
2022/06/18 10:56:53;;;;;;;3.60;1.20;;;;;;;22.41;48.60;98501.38;1815960;78;21063;-66
2022/06/18 10:59:37;;;;;;;2.00;0.98;;;;;;;22.39;48.17;98496.86;1815752;78;20904;-62
2022/06/18 11:02:27;;;;;;;3.72;0.90;;;;;;;22.53;49.57;98493.08;1815796;79;20864;-64
2022/06/18 11:05:02;;;;;;;1.42;0.90;;;;;;;22.62;48.11;98496.42;1815799;78;20994;-64
2022/06/18 11:07:31;;;;;;;1.32;1.00;;;;;;;22.43;47.69;98494.42;1815882;79;20924;-67
2022/06/18 11:10:04;;;;;;;2.08;1.00;;;;;;;22.29;48.74;98498.75;1815875;79;21684;-61
2022/06/18 11:12:34;;;;;;;2.55;1.07;;;;;;;22.35;49.69;98483.11;1816090;78;20955;-69
2022/06/18 11:15:05;;;;;;;8.00;1.30;;;;;;;22.59;49.12;98473.90;1815864;78;20908;-62
2022/06/18 11:17:41;;;;;;;2.55;0.90;;;;;;;22.87;48.31;98474.53;1805135;79;20876;-64
2022/06/18 11:20:23;;;;;;;2.50;1.05;;;;;;;23.09;45.62;98476.55;1816101;78;20877;-72
2022/06/18 11:22:55;;;;;;;1.80;0.80;;;;;;;23.23;47.23;98479.33;1816249;78;21494;-62
2022/06/18 11:25:43;;;;;;;1.98;0.90;;;;;;;23.45;45.96;98470.42;1815788;78;20904;-69
2022/06/18 11:28:39;;;;;;;1.57;0.88;;;;;;;23.49;45.54;98471.27;1815972;78;20908;-70
2022/06/18 11:31:07;;;;;;;1.40;0.90;;;;;;;23.47;46.05;98468.11;1815837;79;20893;-70
2022/06/18 11:33:55;;;;;;;2.22;1.00;;;;;;;23.60;44.82;98468.17;1815776;79;20904;-67
2022/06/18 11:36:41;;;;;;;2.35;1.12;;;;;;;23.65;43.63;98464.54;1815874;79;21071;-66
2022/06/18 11:39:25;;;;;;;;;;;;;;;23.68;43.69;98457.55;1817453;78;20915;-72
2022/06/18 11:41:52;;;;;;;1.70;0.80;;;;;;;23.66;44.57;98453.03;1815891;79;20088;-63
2022/06/18 11:44:30;;;;;;;1.55;0.80;;;;;;;23.72;45.21;98462.50;1815741;78;20920;-70
2022/06/18 11:47:20;;;;;;;2.62;0.98;;;;;;;23.92;44.81;98459.13;1815430;78;20838;-62
2022/06/18 11:50:04;;;;;;;2.95;0.93;;;;;;;24.04;44.32;98453.45;1815709;79;21195;-70
2022/06/18 11:52:36;;;;;;;1.32;0.68;;;;;;;24.19;43.01;98453.33;1825837;77;20880;-62
2022/06/18 11:55:35;;;;;;;1.57;0.70;;;;;;;24.40;44.11;98448.16;1826842;78;21428;-69
2022/06/18 11:58:13;;;;;;;2.10;0.90;;;;;;;24.76;43.96;98441.79;1827293;78;20951;-63
2022/06/18 12:01:10;;;;;;;1.82;0.75;;;;;;;25.24;41.89;98443.58;1827316;78;20971;-65
2022/06/18 12:03:50;;;;;;;1.42;0.70;;;;;;;25.56;42.69;98439.80;1828560;78;21376;-71
2022/06/18 12:06:29;;;;;;;1.90;0.82;;;;;;;25.85;43.00;98438.09;1827431;78;21528;-71
2022/06/18 12:08:56;;;;;;;3.47;0.90;;;;;;;25.71;43.24;98442.31;1827413;78;20891;-64
2022/06/18 12:11:46;;;;;;;1.52;0.70;;;;;;;25.36;42.51;98446.05;1827388;78;20825;-63
2022/06/18 12:14:17;;;;;;;1.47;0.80;;;;;;;25.17;42.29;98442.70;1827429;78;20987;-62
2022/06/18 12:16:57;;;;;;;2.15;0.90;;;;;;;24.83;41.37;98440.54;1827321;78;21118;-68